sensor_id;sensor_type;location;lat;lon;timestamp;P1;durP1;ratioP1;P2;durP2;ratioP2
43297;SDS011;28892;55.640;37.532;2022-12-29T00:01:17;5.53;;;2.33;;
43297;SDS011;28892;55.640;37.532;2022-12-29T00:03:45;3.57;;;2.03;;
43297;SDS011;28892;55.640;37.532;2022-12-29T00:06:11;3.87;;;1.40;;
43297;SDS011;28892;55.640;37.532;2022-12-29T00:08:37;3.53;;;1.27;;
43297;SDS011;28892;55.640;37.532;2022-12-29T00:11:10;3.43;;;1.40;;
43297;SDS011;28892;55.640;37.532;2022-12-29T00:13:40;4.03;;;1.40;;
43297;SDS011;28892;55.640;37.532;2022-12-29T00:16:25;1.97;;;1.30;;
43297;SDS011;28892;55.640;37.532;2022-12-29T00:18:51;4.47;;;1.60;;
43297;SDS011;28892;55.640;37.532;2022-12-29T00:21:17;4.13;;;1.40;;
43297;SDS011;28892;55.640;37.532;2022-12-29T00:24:03;3.53;;;1.50;;
43297;SDS011;28892;55.640;37.532;2022-12-29T00:29:46;2.80;;;1.30;;
43297;SDS011;28892;55.640;37.532;2022-12-29T00:32:30;2.97;;;1.73;;
43297;SDS011;28892;55.640;37.532;2022-12-29T00:35:18;4.80;;;1.77;;
43297;SDS011;28892;55.640;37.532;2022-12-29T00:38:06;4.73;;;1.63;;
43297;SDS011;28892;55.640;37.532;2022-12-29T00:40:53;3.93;;;1.47;;
43297;SDS011;28892;55.640;37.532;2022-12-29T00:43:37;4.53;;;1.60;;
43297;SDS011;28892;55.640;37.532;2022-12-29T00:46:29;3.90;;;1.30;;
43297;SDS011;28892;55.640;37.532;2022-12-29T00:48:54;3.23;;;1.40;;
43297;SDS011;28892;55.640;37.532;2022-12-29T00:51:38;4.67;;;1.60;;
43297;SDS011;28892;55.640;37.532;2022-12-29T00:54:04;4.40;;;1.70;;
43297;SDS011;28892;55.640;37.532;2022-12-29T00:56:30;3.10;;;1.63;;
43297;SDS011;28892;55.640;37.532;2022-12-29T00:58:55;3.13;;;1.50;;
43297;SDS011;28892;55.640;37.532;2022-12-29T01:01:27;3.33;;;1.30;;
43297;SDS011;28892;55.640;37.532;2022-12-29T01:03:52;4.00;;;1.43;;
43297;SDS011;28892;55.640;37.532;2022-12-29T01:06:18;3.23;;;1.63;;
43297;SDS011;28892;55.640;37.532;2022-12-29T01:08:44;4.10;;;1.93;;
43297;SDS011;28892;55.640;37.532;2022-12-29T01:11:10;6.70;;;1.93;;
43297;SDS011;28892;55.640;37.532;2022-12-29T01:13:38;2.97;;;1.30;;
43297;SDS011;28892;55.640;37.532;2022-12-29T01:16:06;5.77;;;1.80;;
43297;SDS011;28892;55.640;37.532;2022-12-29T01:18:33;2.97;;;1.70;;
43297;SDS011;28892;55.640;37.532;2022-12-29T01:20:59;7.73;;;2.13;;
43297;SDS011;28892;55.640;37.532;2022-12-29T01:23:26;3.73;;;1.53;;
43297;SDS011;28892;55.640;37.532;2022-12-29T01:25:52;3.27;;;1.60;;
43297;SDS011;28892;55.640;37.532;2022-12-29T01:28:18;7.30;;;2.07;;
43297;SDS011;28892;55.640;37.532;2022-12-29T01:30:44;4.30;;;1.50;;
43297;SDS011;28892;55.640;37.532;2022-12-29T01:33:12;4.53;;;1.60;;
43297;SDS011;28892;55.640;37.532;2022-12-29T01:35:38;6.10;;;2.00;;
43297;SDS011;28892;55.640;37.532;2022-12-29T01:38:04;3.43;;;1.73;;
43297;SDS011;28892;55.640;37.532;2022-12-29T01:40:30;4.93;;;1.73;;
43297;SDS011;28892;55.640;37.532;2022-12-29T01:42:55;3.03;;;1.30;;
43297;SDS011;28892;55.640;37.532;2022-12-29T01:45:21;3.87;;;1.60;;
43297;SDS011;28892;55.640;37.532;2022-12-29T01:47:54;6.70;;;2.43;;
43297;SDS011;28892;55.640;37.532;2022-12-29T01:50:28;3.93;;;2.07;;
43297;SDS011;28892;55.640;37.532;2022-12-29T01:53:04;4.90;;;1.90;;
43297;SDS011;28892;55.640;37.532;2022-12-29T01:55:36;4.77;;;1.90;;
43297;SDS011;28892;55.640;37.532;2022-12-29T01:58:08;6.50;;;2.27;;
43297;SDS011;28892;55.640;37.532;2022-12-29T02:00:36;5.37;;;2.00;;
43297;SDS011;28892;55.640;37.532;2022-12-29T02:03:02;6.17;;;2.10;;
43297;SDS011;28892;55.640;37.532;2022-12-29T02:05:45;6.17;;;2.20;;
43297;SDS011;28892;55.640;37.532;2022-12-29T02:08:15;7.80;;;2.20;;
43297;SDS011;28892;55.640;37.532;2022-12-29T02:10:41;6.40;;;2.10;;
43297;SDS011;28892;55.640;37.532;2022-12-29T02:13:09;4.20;;;1.93;;
43297;SDS011;28892;55.640;37.532;2022-12-29T02:24:19;5.37;;;1.97;;
43297;SDS011;28892;55.640;37.532;2022-12-29T02:35:14;5.40;;;2.00;;
43297;SDS011;28892;55.640;37.532;2022-12-29T02:38:15;5.37;;;1.97;;
43297;SDS011;28892;55.640;37.532;2022-12-29T02:41:00;6.20;;;2.87;;
43297;SDS011;28892;55.640;37.532;2022-12-29T02:43:42;6.57;;;2.33;;
43297;SDS011;28892;55.640;37.532;2022-12-29T02:48:48;6.23;;;2.43;;
43297;SDS011;28892;55.640;37.532;2022-12-29T02:52:44;6.10;;;1.87;;
43297;SDS011;28892;55.640;37.532;2022-12-29T02:55:33;6.33;;;2.00;;
43297;SDS011;28892;55.640;37.532;2022-12-29T02:58:33;6.90;;;2.10;;
43297;SDS011;28892;55.640;37.532;2022-12-29T03:17:54;5.25;;;2.20;;
43297;SDS011;28892;55.640;37.532;2022-12-29T03:20:53;7.57;;;2.13;;
43297;SDS011;28892;55.640;37.532;2022-12-29T03:23:23;3.37;;;1.90;;
43297;SDS011;28892;55.640;37.532;2022-12-29T03:25:53;6.23;;;2.30;;
43297;SDS011;28892;55.640;37.532;2022-12-29T03:28:26;4.97;;;2.27;;
43297;SDS011;28892;55.640;37.532;2022-12-29T03:30:57;4.30;;;1.87;;
43297;SDS011;28892;55.640;37.532;2022-12-29T03:33:25;4.03;;;2.30;;
43297;SDS011;28892;55.640;37.532;2022-12-29T03:35:56;7.50;;;2.27;;
43297;SDS011;28892;55.640;37.532;2022-12-29T03:38:31;7.83;;;2.47;;
43297;SDS011;28892;55.640;37.532;2022-12-29T03:41:12;6.73;;;2.07;;
43297;SDS011;28892;55.640;37.532;2022-12-29T03:43:42;6.57;;;2.20;;
43297;SDS011;28892;55.640;37.532;2022-12-29T03:50:30;4.83;;;2.00;;
43297;SDS011;28892;55.640;37.532;2022-12-29T03:52:56;7.93;;;3.13;;
43297;SDS011;28892;55.640;37.532;2022-12-29T03:55:22;5.83;;;2.50;;
43297;SDS011;28892;55.640;37.532;2022-12-29T03:57:47;10.03;;;2.60;;
43297;SDS011;28892;55.640;37.532;2022-12-29T04:00:18;7.67;;;2.77;;
43297;SDS011;28892;55.640;37.532;2022-12-29T04:02:48;5.43;;;2.00;;
43297;SDS011;28892;55.640;37.532;2022-12-29T04:05:19;13.20;;;3.27;;
43297;SDS011;28892;55.640;37.532;2022-12-29T04:07:45;8.13;;;2.17;;
43297;SDS011;28892;55.640;37.532;2022-12-29T04:10:12;7.27;;;2.33;;
43297;SDS011;28892;55.640;37.532;2022-12-29T04:12:38;6.60;;;2.10;;
43297;SDS011;28892;55.640;37.532;2022-12-29T04:15:04;6.50;;;2.20;;
43297;SDS011;28892;55.640;37.532;2022-12-29T04:17:33;4.33;;;2.23;;
43297;SDS011;28892;55.640;37.532;2022-12-29T04:20:22;4.50;;;2.23;;
43297;SDS011;28892;55.640;37.532;2022-12-29T04:23:07;8.17;;;2.40;;
43297;SDS011;28892;55.640;37.532;2022-12-29T04:25:34;3.53;;;1.90;;
43297;SDS011;28892;55.640;37.532;2022-12-29T04:28:01;8.60;;;2.70;;
43297;SDS011;28892;55.640;37.532;2022-12-29T04:30:43;4.40;;;1.83;;
43297;SDS011;28892;55.640;37.532;2022-12-29T04:33:25;8.98;;;2.10;;
43297;SDS011;28892;55.640;37.532;2022-12-29T04:35:52;11.73;;;2.40;;
43297;SDS011;28892;55.640;37.532;2022-12-29T04:38:19;11.73;;;2.83;;
43297;SDS011;28892;55.640;37.532;2022-12-29T04:40:47;9.30;;;2.37;;
43297;SDS011;28892;55.640;37.532;2022-12-29T04:43:15;5.80;;;2.43;;
43297;SDS011;28892;55.640;37.532;2022-12-29T04:46:02;12.50;;;2.87;;
43297;SDS011;28892;55.640;37.532;2022-12-29T04:48:34;8.23;;;2.33;;
43297;SDS011;28892;55.640;37.532;2022-12-29T04:51:11;6.23;;;2.47;;
43297;SDS011;28892;55.640;37.532;2022-12-29T04:53:38;8.10;;;2.33;;
43297;SDS011;28892;55.640;37.532;2022-12-29T04:56:04;9.70;;;2.70;;
43297;SDS011;28892;55.640;37.532;2022-12-29T04:58:31;4.83;;;2.40;;
43297;SDS011;28892;55.640;37.532;2022-12-29T05:00:58;8.93;;;2.50;;
43297;SDS011;28892;55.640;37.532;2022-12-29T05:03:25;4.43;;;2.43;;
43297;SDS011;28892;55.640;37.532;2022-12-29T05:05:54;4.57;;;2.30;;
43297;SDS011;28892;55.640;37.532;2022-12-29T05:08:21;4.00;;;2.10;;
43297;SDS011;28892;55.640;37.532;2022-12-29T05:10:47;6.47;;;2.33;;
43297;SDS011;28892;55.640;37.532;2022-12-29T05:13:16;9.30;;;5.07;;
43297;SDS011;28892;55.640;37.532;2022-12-29T05:15:47;8.40;;;2.60;;
43297;SDS011;28892;55.640;37.532;2022-12-29T05:18:17;6.67;;;2.87;;
43297;SDS011;28892;55.640;37.532;2022-12-29T05:21:02;9.73;;;2.40;;
43297;SDS011;28892;55.640;37.532;2022-12-29T05:23:27;6.70;;;3.23;;
43297;SDS011;28892;55.640;37.532;2022-12-29T05:25:58;5.80;;;2.43;;
43297;SDS011;28892;55.640;37.532;2022-12-29T05:28:46;6.80;;;2.20;;
43297;SDS011;28892;55.640;37.532;2022-12-29T05:31:17;6.73;;;2.47;;
43297;SDS011;28892;55.640;37.532;2022-12-29T05:33:43;10.33;;;2.87;;
43297;SDS011;28892;55.640;37.532;2022-12-29T05:36:09;7.10;;;3.00;;
43297;SDS011;28892;55.640;37.532;2022-12-29T05:38:38;5.57;;;3.40;;
43297;SDS011;28892;55.640;37.532;2022-12-29T05:41:04;10.70;;;4.47;;
43297;SDS011;28892;55.640;37.532;2022-12-29T05:43:48;7.07;;;3.50;;
43297;SDS011;28892;55.640;37.532;2022-12-29T05:46:29;7.27;;;3.30;;
43297;SDS011;28892;55.640;37.532;2022-12-29T05:49:07;7.87;;;3.27;;
43297;SDS011;28892;55.640;37.532;2022-12-29T05:55:10;6.53;;;2.80;;
43297;SDS011;28892;55.640;37.532;2022-12-29T05:57:38;6.67;;;3.07;;
43297;SDS011;28892;55.640;37.532;2022-12-29T06:00:13;7.37;;;3.17;;
43297;SDS011;28892;55.640;37.532;2022-12-29T06:02:45;3.97;;;3.00;;
43297;SDS011;28892;55.640;37.532;2022-12-29T06:05:11;7.67;;;2.80;;
43297;SDS011;28892;55.640;37.532;2022-12-29T06:07:38;9.70;;;3.37;;
43297;SDS011;28892;55.640;37.532;2022-12-29T06:10:05;7.17;;;2.80;;
43297;SDS011;28892;55.640;37.532;2022-12-29T06:12:38;7.90;;;3.10;;
43297;SDS011;28892;55.640;37.532;2022-12-29T06:15:04;7.77;;;3.00;;
43297;SDS011;28892;55.640;37.532;2022-12-29T06:17:31;7.93;;;3.40;;
43297;SDS011;28892;55.640;37.532;2022-12-29T06:19:57;7.90;;;3.23;;
43297;SDS011;28892;55.640;37.532;2022-12-29T06:22:23;5.03;;;2.97;;
43297;SDS011;28892;55.640;37.532;2022-12-29T06:24:49;7.67;;;3.30;;
43297;SDS011;28892;55.640;37.532;2022-12-29T06:27:15;9.30;;;3.60;;
43297;SDS011;28892;55.640;37.532;2022-12-29T06:29:41;5.57;;;3.47;;
43297;SDS011;28892;55.640;37.532;2022-12-29T06:32:08;8.80;;;3.57;;
43297;SDS011;28892;55.640;37.532;2022-12-29T06:34:35;7.77;;;3.70;;
43297;SDS011;28892;55.640;37.532;2022-12-29T06:37:01;6.27;;;3.53;;
43297;SDS011;28892;55.640;37.532;2022-12-29T06:39:27;5.83;;;3.90;;
43297;SDS011;28892;55.640;37.532;2022-12-29T06:42:02;6.83;;;3.60;;
43297;SDS011;28892;55.640;37.532;2022-12-29T06:44:40;6.50;;;4.10;;
43297;SDS011;28892;55.640;37.532;2022-12-29T06:47:08;6.83;;;4.03;;
43297;SDS011;28892;55.640;37.532;2022-12-29T06:49:34;8.07;;;3.77;;
43297;SDS011;28892;55.640;37.532;2022-12-29T06:52:00;6.77;;;3.83;;
43297;SDS011;28892;55.640;37.532;2022-12-29T06:54:29;5.77;;;4.03;;
43297;SDS011;28892;55.640;37.532;2022-12-29T06:56:56;7.87;;;3.93;;
43297;SDS011;28892;55.640;37.532;2022-12-29T06:59:22;6.73;;;4.13;;
43297;SDS011;28892;55.640;37.532;2022-12-29T07:01:48;9.37;;;4.70;;
43297;SDS011;28892;55.640;37.532;2022-12-29T07:04:14;8.10;;;4.70;;
43297;SDS011;28892;55.640;37.532;2022-12-29T07:06:39;8.70;;;4.23;;
43297;SDS011;28892;55.640;37.532;2022-12-29T07:09:06;9.13;;;4.50;;
43297;SDS011;28892;55.640;37.532;2022-12-29T07:11:32;8.07;;;4.13;;
43297;SDS011;28892;55.640;37.532;2022-12-29T07:13:58;6.97;;;3.67;;
43297;SDS011;28892;55.640;37.532;2022-12-29T07:16:24;7.43;;;4.30;;
43297;SDS011;28892;55.640;37.532;2022-12-29T07:18:50;8.57;;;4.50;;
43297;SDS011;28892;55.640;37.532;2022-12-29T07:21:17;8.03;;;3.50;;
43297;SDS011;28892;55.640;37.532;2022-12-29T07:23:43;8.33;;;3.53;;
43297;SDS011;28892;55.640;37.532;2022-12-29T07:26:09;8.47;;;3.93;;
43297;SDS011;28892;55.640;37.532;2022-12-29T07:28:37;7.63;;;4.57;;
43297;SDS011;28892;55.640;37.532;2022-12-29T07:31:04;8.73;;;4.60;;
43297;SDS011;28892;55.640;37.532;2022-12-29T07:33:31;8.83;;;4.87;;
43297;SDS011;28892;55.640;37.532;2022-12-29T07:35:58;8.70;;;4.60;;
43297;SDS011;28892;55.640;37.532;2022-12-29T07:38:24;11.73;;;4.60;;
43297;SDS011;28892;55.640;37.532;2022-12-29T07:40:50;8.27;;;5.00;;
43297;SDS011;28892;55.640;37.532;2022-12-29T07:43:16;10.93;;;5.00;;
43297;SDS011;28892;55.640;37.532;2022-12-29T07:45:54;9.90;;;5.77;;
43297;SDS011;28892;55.640;37.532;2022-12-29T07:48:21;9.53;;;5.67;;
43297;SDS011;28892;55.640;37.532;2022-12-29T07:50:47;8.37;;;5.83;;
43297;SDS011;28892;55.640;37.532;2022-12-29T07:53:13;12.07;;;6.60;;
43297;SDS011;28892;55.640;37.532;2022-12-29T07:55:39;11.47;;;7.40;;
43297;SDS011;28892;55.640;37.532;2022-12-29T07:58:05;13.37;;;7.60;;
43297;SDS011;28892;55.640;37.532;2022-12-29T08:00:30;14.27;;;7.37;;
43297;SDS011;28892;55.640;37.532;2022-12-29T08:02:57;16.03;;;10.23;;
43297;SDS011;28892;55.640;37.532;2022-12-29T08:05:23;14.27;;;8.67;;
43297;SDS011;28892;55.640;37.532;2022-12-29T08:07:49;12.90;;;7.67;;
43297;SDS011;28892;55.640;37.532;2022-12-29T08:10:15;13.17;;;7.07;;
43297;SDS011;28892;55.640;37.532;2022-12-29T08:12:41;8.23;;;6.97;;
43297;SDS011;28892;55.640;37.532;2022-12-29T08:15:08;11.10;;;6.77;;
43297;SDS011;28892;55.640;37.532;2022-12-29T08:17:35;9.27;;;6.27;;
43297;SDS011;28892;55.640;37.532;2022-12-29T08:20:01;12.07;;;6.97;;
43297;SDS011;28892;55.640;37.532;2022-12-29T08:22:28;13.37;;;7.03;;
43297;SDS011;28892;55.640;37.532;2022-12-29T08:24:54;10.07;;;6.80;;
43297;SDS011;28892;55.640;37.532;2022-12-29T08:27:20;10.53;;;6.97;;
43297;SDS011;28892;55.640;37.532;2022-12-29T08:29:45;11.67;;;7.23;;
43297;SDS011;28892;55.640;37.532;2022-12-29T08:32:11;10.20;;;6.40;;
43297;SDS011;28892;55.640;37.532;2022-12-29T08:34:37;11.83;;;5.67;;
43297;SDS011;28892;55.640;37.532;2022-12-29T08:37:03;9.80;;;5.37;;
43297;SDS011;28892;55.640;37.532;2022-12-29T08:39:29;11.03;;;6.17;;
43297;SDS011;28892;55.640;37.532;2022-12-29T08:41:54;8.20;;;4.90;;
43297;SDS011;28892;55.640;37.532;2022-12-29T08:44:20;11.97;;;5.17;;
43297;SDS011;28892;55.640;37.532;2022-12-29T08:46:46;9.10;;;5.27;;
43297;SDS011;28892;55.640;37.532;2022-12-29T08:49:12;7.53;;;4.47;;
43297;SDS011;28892;55.640;37.532;2022-12-29T08:51:41;9.43;;;4.87;;
43297;SDS011;28892;55.640;37.532;2022-12-29T08:54:07;12.40;;;5.30;;
43297;SDS011;28892;55.640;37.532;2022-12-29T08:56:32;11.10;;;4.87;;
43297;SDS011;28892;55.640;37.532;2022-12-29T08:58:59;9.23;;;5.03;;
43297;SDS011;28892;55.640;37.532;2022-12-29T09:01:28;8.63;;;5.33;;
43297;SDS011;28892;55.640;37.532;2022-12-29T09:03:54;7.03;;;4.53;;
43297;SDS011;28892;55.640;37.532;2022-12-29T09:06:20;9.53;;;4.57;;
43297;SDS011;28892;55.640;37.532;2022-12-29T09:08:46;8.03;;;5.50;;
43297;SDS011;28892;55.640;37.532;2022-12-29T09:11:14;10.30;;;6.13;;
43297;SDS011;28892;55.640;37.532;2022-12-29T09:16:10;13.20;;;7.00;;
43297;SDS011;28892;55.640;37.532;2022-12-29T09:18:36;10.40;;;5.87;;
43297;SDS011;28892;55.640;37.532;2022-12-29T09:21:03;8.33;;;6.30;;
43297;SDS011;28892;55.640;37.532;2022-12-29T09:23:30;10.80;;;6.67;;
43297;SDS011;28892;55.640;37.532;2022-12-29T09:25:57;11.77;;;6.10;;
43297;SDS011;28892;55.640;37.532;2022-12-29T09:28:22;10.53;;;5.93;;
43297;SDS011;28892;55.640;37.532;2022-12-29T09:30:48;6.03;;;4.00;;
43297;SDS011;28892;55.640;37.532;2022-12-29T09:33:14;8.37;;;5.00;;
43297;SDS011;28892;55.640;37.532;2022-12-29T09:35:44;6.20;;;3.93;;
43297;SDS011;28892;55.640;37.532;2022-12-29T09:38:11;12.23;;;6.50;;
43297;SDS011;28892;55.640;37.532;2022-12-29T09:40:37;7.57;;;4.80;;
43297;SDS011;28892;55.640;37.532;2022-12-29T09:51:25;6.87;;;3.63;;
43297;SDS011;28892;55.640;37.532;2022-12-29T09:53:58;5.73;;;3.20;;
43297;SDS011;28892;55.640;37.532;2022-12-29T09:56:27;7.00;;;4.00;;
43297;SDS011;28892;55.640;37.532;2022-12-29T09:58:55;9.40;;;5.40;;
43297;SDS011;28892;55.640;37.532;2022-12-29T10:01:28;10.18;;;6.43;;
43297;SDS011;28892;55.640;37.532;2022-12-29T10:04:09;11.50;;;5.78;;
43297;SDS011;28892;55.640;37.532;2022-12-29T10:12:37;12.30;;;7.30;;
43297;SDS011;28892;55.640;37.532;2022-12-29T10:20:52;9.50;;;6.00;;
43297;SDS011;28892;55.640;37.532;2022-12-29T10:23:22;7.63;;;5.63;;
43297;SDS011;28892;55.640;37.532;2022-12-29T10:26:15;9.50;;;5.63;;
43297;SDS011;28892;55.640;37.532;2022-12-29T10:28:48;7.27;;;5.50;;
43297;SDS011;28892;55.640;37.532;2022-12-29T10:31:22;7.77;;;5.03;;
43297;SDS011;28892;55.640;37.532;2022-12-29T10:33:51;8.43;;;5.30;;
43297;SDS011;28892;55.640;37.532;2022-12-29T10:36:35;7.53;;;5.28;;
43297;SDS011;28892;55.640;37.532;2022-12-29T10:41:53;6.60;;;5.20;;
43297;SDS011;28892;55.640;37.532;2022-12-29T10:44:34;8.00;;;5.30;;
43297;SDS011;28892;55.640;37.532;2022-12-29T10:47:07;7.93;;;5.30;;
43297;SDS011;28892;55.640;37.532;2022-12-29T10:49:40;6.67;;;4.60;;
43297;SDS011;28892;55.640;37.532;2022-12-29T10:52:08;8.03;;;4.70;;
43297;SDS011;28892;55.640;37.532;2022-12-29T10:54:43;6.77;;;4.90;;
43297;SDS011;28892;55.640;37.532;2022-12-29T10:57:11;10.02;;;5.63;;
43297;SDS011;28892;55.640;37.532;2022-12-29T10:59:43;8.87;;;5.60;;
43297;SDS011;28892;55.640;37.532;2022-12-29T11:07:34;8.10;;;5.57;;
43297;SDS011;28892;55.640;37.532;2022-12-29T11:10:17;8.77;;;5.63;;
43297;SDS011;28892;55.640;37.532;2022-12-29T11:13:03;7.37;;;5.53;;
43297;SDS011;28892;55.640;37.532;2022-12-29T11:15:43;9.57;;;5.70;;
43297;SDS011;28892;55.640;37.532;2022-12-29T11:18:20;9.80;;;6.13;;
43297;SDS011;28892;55.640;37.532;2022-12-29T11:20:52;8.43;;;6.20;;
43297;SDS011;28892;55.640;37.532;2022-12-29T11:23:34;9.47;;;6.17;;
43297;SDS011;28892;55.640;37.532;2022-12-29T11:29:02;11.60;;;6.83;;
43297;SDS011;28892;55.640;37.532;2022-12-29T11:31:43;9.63;;;6.83;;
43297;SDS011;28892;55.640;37.532;2022-12-29T11:34:21;12.77;;;5.90;;
43297;SDS011;28892;55.640;37.532;2022-12-29T11:36:48;10.67;;;6.70;;
43297;SDS011;28892;55.640;37.532;2022-12-29T11:41:53;10.70;;;7.10;;
43297;SDS011;28892;55.640;37.532;2022-12-29T11:44:19;11.27;;;7.00;;
43297;SDS011;28892;55.640;37.532;2022-12-29T11:46:46;9.67;;;6.70;;
43297;SDS011;28892;55.640;37.532;2022-12-29T11:49:22;10.77;;;6.90;;
43297;SDS011;28892;55.640;37.532;2022-12-29T11:51:50;11.07;;;6.43;;
43297;SDS011;28892;55.640;37.532;2022-12-29T11:54:38;11.70;;;6.73;;
43297;SDS011;28892;55.640;37.532;2022-12-29T11:57:14;11.57;;;7.87;;
43297;SDS011;28892;55.640;37.532;2022-12-29T11:59:52;13.77;;;7.53;;
43297;SDS011;28892;55.640;37.532;2022-12-29T12:05:19;15.67;;;7.40;;
43297;SDS011;28892;55.640;37.532;2022-12-29T12:08:03;13.53;;;8.07;;
43297;SDS011;28892;55.640;37.532;2022-12-29T12:10:37;9.47;;;6.93;;
43297;SDS011;28892;55.640;37.532;2022-12-29T12:13:27;12.73;;;6.97;;
43297;SDS011;28892;55.640;37.532;2022-12-29T12:16:08;13.13;;;7.90;;
43297;SDS011;28892;55.640;37.532;2022-12-29T12:18:48;11.77;;;6.40;;
43297;SDS011;28892;55.640;37.532;2022-12-29T12:21:20;12.47;;;8.10;;
43297;SDS011;28892;55.640;37.532;2022-12-29T12:24:10;10.93;;;7.68;;
43297;SDS011;28892;55.640;37.532;2022-12-29T12:27:00;14.00;;;7.97;;
43297;SDS011;28892;55.640;37.532;2022-12-29T12:29:52;13.07;;;7.90;;
43297;SDS011;28892;55.640;37.532;2022-12-29T12:35:13;13.90;;;8.57;;
43297;SDS011;28892;55.640;37.532;2022-12-29T12:42:54;15.93;;;8.20;;
43297;SDS011;28892;55.640;37.532;2022-12-29T12:45:49;14.13;;;8.70;;
43297;SDS011;28892;55.640;37.532;2022-12-29T12:59:34;17.90;;;9.07;;
43297;SDS011;28892;55.640;37.532;2022-12-29T13:02:29;16.53;;;8.97;;
43297;SDS011;28892;55.640;37.532;2022-12-29T13:05:24;13.63;;;7.23;;
43297;SDS011;28892;55.640;37.532;2022-12-29T13:11:08;12.67;;;8.00;;
43297;SDS011;28892;55.640;37.532;2022-12-29T13:13:46;12.65;;;7.57;;
43297;SDS011;28892;55.640;37.532;2022-12-29T13:16:29;16.13;;;7.67;;
43297;SDS011;28892;55.640;37.532;2022-12-29T13:24:26;11.77;;;7.53;;
43297;SDS011;28892;55.640;37.532;2022-12-29T13:27:03;12.40;;;8.03;;
43297;SDS011;28892;55.640;37.532;2022-12-29T13:32:50;18.53;;;7.80;;
43297;SDS011;28892;55.640;37.532;2022-12-29T13:40:41;20.37;;;10.47;;
43297;SDS011;28892;55.640;37.532;2022-12-29T13:43:12;25.60;;;11.20;;
43297;SDS011;28892;55.640;37.532;2022-12-29T13:45:39;23.77;;;10.70;;
43297;SDS011;28892;55.640;37.532;2022-12-29T13:48:10;22.70;;;11.27;;
43297;SDS011;28892;55.640;37.532;2022-12-29T13:50:42;31.50;;;11.30;;
43297;SDS011;28892;55.640;37.532;2022-12-29T13:58:50;24.83;;;12.43;;
43297;SDS011;28892;55.640;37.532;2022-12-29T14:01:23;27.27;;;12.77;;
43297;SDS011;28892;55.640;37.532;2022-12-29T14:03:53;25.90;;;12.77;;
43297;SDS011;28892;55.640;37.532;2022-12-29T14:06:30;31.50;;;13.27;;
43297;SDS011;28892;55.640;37.532;2022-12-29T14:11:53;30.93;;;13.87;;
43297;SDS011;28892;55.640;37.532;2022-12-29T14:14:21;29.83;;;13.93;;
43297;SDS011;28892;55.640;37.532;2022-12-29T14:19:45;23.73;;;13.27;;
43297;SDS011;28892;55.640;37.532;2022-12-29T14:22:11;32.30;;;14.27;;
43297;SDS011;28892;55.640;37.532;2022-12-29T14:24:42;29.63;;;13.27;;
43297;SDS011;28892;55.640;37.532;2022-12-29T14:32:34;29.53;;;13.30;;
43297;SDS011;28892;55.640;37.532;2022-12-29T14:34:49;29.27;;;14.53;;
43297;SDS011;28892;55.640;37.532;2022-12-29T14:39:52;30.00;;;13.73;;
43297;SDS011;28892;55.640;37.532;2022-12-29T14:42:51;31.43;;;13.87;;
43297;SDS011;28892;55.640;37.532;2022-12-29T14:47:45;28.57;;;13.80;;
43297;SDS011;28892;55.640;37.532;2022-12-29T14:53:06;30.65;;;13.10;;
43297;SDS011;28892;55.640;37.532;2022-12-29T14:56:24;30.23;;;13.13;;
43297;SDS011;28892;55.640;37.532;2022-12-29T14:58:57;31.00;;;13.93;;
43297;SDS011;28892;55.640;37.532;2022-12-29T15:01:35;34.83;;;16.00;;
43297;SDS011;28892;55.640;37.532;2022-12-29T15:04:15;32.80;;;15.33;;
43297;SDS011;28892;55.640;37.532;2022-12-29T15:06:44;27.53;;;13.33;;
43297;SDS011;28892;55.640;37.532;2022-12-29T15:14:53;30.10;;;14.10;;
43297;SDS011;28892;55.640;37.532;2022-12-29T15:17:27;34.97;;;15.80;;
43297;SDS011;28892;55.640;37.532;2022-12-29T15:19:55;49.27;;;21.63;;
43297;SDS011;28892;55.640;37.532;2022-12-29T15:22:22;33.03;;;16.10;;
43297;SDS011;28892;55.640;37.532;2022-12-29T15:24:50;38.43;;;16.87;;
43297;SDS011;28892;55.640;37.532;2022-12-29T15:27:22;37.37;;;16.43;;
43297;SDS011;28892;55.640;37.532;2022-12-29T15:29:59;31.13;;;14.23;;
43297;SDS011;28892;55.640;37.532;2022-12-29T15:32:38;36.80;;;15.90;;
43297;SDS011;28892;55.640;37.532;2022-12-29T15:35:21;36.10;;;15.07;;
43297;SDS011;28892;55.640;37.532;2022-12-29T15:38:12;36.70;;;17.13;;
43297;SDS011;28892;55.640;37.532;2022-12-29T15:40:41;36.27;;;15.27;;
43297;SDS011;28892;55.640;37.532;2022-12-29T15:45:47;33.50;;;15.77;;
43297;SDS011;28892;55.640;37.532;2022-12-29T15:48:17;37.57;;;16.03;;
43297;SDS011;28892;55.640;37.532;2022-12-29T15:50:46;42.20;;;16.47;;
43297;SDS011;28892;55.640;37.532;2022-12-29T15:53:17;37.13;;;15.20;;
43297;SDS011;28892;55.640;37.532;2022-12-29T15:55:50;32.00;;;15.23;;
43297;SDS011;28892;55.640;37.532;2022-12-29T15:58:23;33.70;;;16.27;;
43297;SDS011;28892;55.640;37.532;2022-12-29T16:00:52;37.67;;;15.57;;
43297;SDS011;28892;55.640;37.532;2022-12-29T16:03:20;35.00;;;15.77;;
43297;SDS011;28892;55.640;37.532;2022-12-29T16:05:58;39.57;;;17.73;;
43297;SDS011;28892;55.640;37.532;2022-12-29T16:08:36;51.77;;;17.73;;
43297;SDS011;28892;55.640;37.532;2022-12-29T16:14:05;40.73;;;16.37;;
43297;SDS011;28892;55.640;37.532;2022-12-29T16:16:39;48.13;;;16.53;;
43297;SDS011;28892;55.640;37.532;2022-12-29T16:19:21;44.07;;;17.10;;
43297;SDS011;28892;55.640;37.532;2022-12-29T16:21:52;34.03;;;15.43;;
43297;SDS011;28892;55.640;37.532;2022-12-29T16:24:20;58.77;;;18.43;;
43297;SDS011;28892;55.640;37.532;2022-12-29T16:26:51;43.93;;;16.03;;
43297;SDS011;28892;55.640;37.532;2022-12-29T16:29:33;55.20;;;18.27;;
43297;SDS011;28892;55.640;37.532;2022-12-29T16:32:00;43.10;;;16.57;;
43297;SDS011;28892;55.640;37.532;2022-12-29T16:37:03;38.03;;;16.23;;
43297;SDS011;28892;55.640;37.532;2022-12-29T16:39:53;50.00;;;17.23;;
43297;SDS011;28892;55.640;37.532;2022-12-29T16:47:45;46.07;;;17.43;;
43297;SDS011;28892;55.640;37.532;2022-12-29T16:50:15;45.10;;;18.30;;
43297;SDS011;28892;55.640;37.532;2022-12-29T16:52:50;37.07;;;16.27;;
43297;SDS011;28892;55.640;37.532;2022-12-29T16:55:16;39.03;;;16.20;;
43297;SDS011;28892;55.640;37.532;2022-12-29T16:57:44;39.03;;;16.43;;
43297;SDS011;28892;55.640;37.532;2022-12-29T17:00:19;45.63;;;17.23;;
43297;SDS011;28892;55.640;37.532;2022-12-29T17:02:46;46.07;;;18.40;;
43297;SDS011;28892;55.640;37.532;2022-12-29T17:05:17;37.87;;;16.77;;
43297;SDS011;28892;55.640;37.532;2022-12-29T17:07:44;41.80;;;17.50;;
43297;SDS011;28892;55.640;37.532;2022-12-29T17:10:10;37.37;;;16.53;;
43297;SDS011;28892;55.640;37.532;2022-12-29T17:12:38;40.67;;;17.00;;
43297;SDS011;28892;55.640;37.532;2022-12-29T17:15:04;34.80;;;17.03;;
43297;SDS011;28892;55.640;37.532;2022-12-29T17:17:39;43.17;;;18.20;;
43297;SDS011;28892;55.640;37.532;2022-12-29T17:23:04;47.43;;;17.03;;
43297;SDS011;28892;55.640;37.532;2022-12-29T17:26:00;34.50;;;17.00;;
43297;SDS011;28892;55.640;37.532;2022-12-29T17:28:29;40.83;;;17.57;;
43297;SDS011;28892;55.640;37.532;2022-12-29T17:30:58;36.60;;;17.13;;
43297;SDS011;28892;55.640;37.532;2022-12-29T17:33:26;42.43;;;17.17;;
43297;SDS011;28892;55.640;37.532;2022-12-29T17:36:01;42.77;;;17.50;;
43297;SDS011;28892;55.640;37.532;2022-12-29T17:38:29;36.50;;;16.47;;
43297;SDS011;28892;55.640;37.532;2022-12-29T17:41:01;35.47;;;16.70;;
43297;SDS011;28892;55.640;37.532;2022-12-29T17:43:38;31.43;;;16.67;;